createdAt,value
2023-05-24T00:01:20.994Z,62.82
2023-05-24T00:03:47.467Z,62.99
2023-05-24T00:06:13.826Z,62.76
2023-05-24T00:08:40.076Z,63.04
2023-05-24T00:11:06.425Z,62.94
2023-05-24T00:13:33.143Z,62.93
2023-05-24T00:16:04.062Z,62.99
2023-05-24T00:18:35.542Z,62.82
2023-05-24T00:21:03.120Z,62.57
2023-05-24T00:23:32.726Z,62.81
2023-05-24T00:25:59.109Z,62.53
2023-05-24T00:28:31.212Z,62.49
2023-05-24T00:31:01.391Z,62.38
2023-05-24T00:33:32.080Z,62.89
2023-05-24T00:35:58.354Z,62.64
2023-05-24T00:38:28.431Z,62.32
2023-05-24T00:40:54.707Z,62.68
2023-05-24T00:43:25.333Z,62.45
2023-05-24T00:45:52.700Z,62.69
2023-05-24T00:48:20.317Z,62.67
2023-05-24T00:50:49.595Z,62.65
2023-05-24T00:53:20.912Z,62.51
2023-05-24T00:55:47.202Z,62.32
2023-05-24T00:58:15.858Z,62.29
2023-05-24T01:00:42.286Z,62.49
2023-05-24T01:03:08.798Z,62.11
2023-05-24T01:05:39.159Z,62.57
2023-05-24T01:08:10.381Z,62.59
2023-05-24T01:10:36.632Z,62.30
2023-05-24T01:13:09.473Z,62.23
2023-05-24T01:15:35.763Z,62.26
2023-05-24T01:18:02.118Z,62.24
2023-05-24T01:20:31.115Z,62.33
2023-05-24T01:23:03.450Z,62.31
2023-05-24T01:25:29.701Z,62.17
2023-05-24T01:27:58.941Z,62.18
2023-05-24T01:30:25.209Z,62.45
2023-05-24T01:32:51.505Z,61.96
2023-05-24T01:35:19.723Z,62.29
2023-05-24T01:37:53.719Z,62.32
2023-05-24T01:40:22.586Z,62.38
2023-05-24T01:42:52.923Z,62.43
2023-05-24T01:45:19.361Z,62.02
2023-05-24T01:47:45.795Z,62.05
2023-05-24T01:50:18.439Z,62.30
2023-05-24T01:52:44.951Z,61.92
2023-05-24T01:55:11.198Z,62.07
2023-05-24T01:57:40.925Z,61.87
2023-05-24T02:00:07.583Z,62.43
2023-05-24T02:02:35.014Z,61.87
2023-05-24T02:05:05.502Z,61.93
2023-05-24T02:07:33.439Z,62.11
2023-05-24T02:09:59.738Z,62.20
2023-05-24T02:12:25.992Z,62.21
2023-05-24T02:14:52.265Z,62.10
2023-05-24T02:17:18.525Z,61.88
2023-05-24T02:19:44.788Z,62.03
2023-05-24T02:22:11.038Z,61.80
2023-05-24T02:24:37.284Z,61.86
2023-05-24T02:27:08.057Z,61.90
2023-05-24T02:29:41.131Z,62.00
2023-05-24T02:32:07.841Z,62.11
2023-05-24T02:34:41.250Z,61.84
2023-05-24T02:37:13.316Z,61.74
2023-05-24T02:39:39.643Z,61.83
2023-05-24T02:42:10.241Z,61.76
2023-05-24T02:44:42.577Z,61.94
2023-05-24T02:47:08.858Z,61.87
2023-05-24T02:49:35.901Z,61.56
2023-05-24T02:52:02.148Z,61.86
2023-05-24T02:54:28.389Z,61.75
2023-05-24T02:56:55.986Z,61.92
2023-05-24T02:59:22.312Z,61.89
2023-05-24T03:01:49.829Z,61.95
2023-05-24T03:04:19.662Z,61.37
2023-05-24T03:06:45.929Z,61.53
2023-05-24T03:09:12.276Z,61.46
2023-05-24T03:11:44.605Z,61.87
2023-05-24T03:14:16.765Z,61.60
2023-05-24T03:16:43.322Z,61.83
2023-05-24T03:19:10.120Z,61.51
2023-05-24T03:21:36.645Z,61.51
2023-05-24T03:24:02.943Z,61.50
2023-05-24T03:26:34.732Z,61.56
2023-05-24T03:29:08.478Z,61.74
2023-05-24T03:31:39.875Z,61.47
2023-05-24T03:34:06.186Z,61.67
2023-05-24T03:36:40.286Z,61.67
2023-05-24T03:39:06.525Z,61.29
2023-05-24T03:41:32.777Z,61.59
2023-05-24T03:44:03.942Z,61.65
2023-05-24T03:46:33.797Z,61.56
2023-05-24T03:49:00.146Z,61.61
2023-05-24T03:51:36.384Z,61.69
2023-05-24T03:54:02.703Z,61.45
2023-05-24T03:56:29.074Z,61.69
2023-05-24T03:59:01.577Z,61.20
2023-05-24T04:01:34.544Z,61.24
2023-05-24T04:04:01.867Z,61.23
2023-05-24T04:06:30.165Z,61.60
2023-05-24T04:08:56.424Z,61.65
2023-05-24T04:11:27.050Z,61.22
2023-05-24T04:13:54.088Z,61.41
2023-05-24T04:16:20.520Z,61.63
2023-05-24T04:18:48.442Z,61.46
2023-05-24T04:21:14.920Z,61.15
2023-05-24T04:23:46.757Z,61.28
2023-05-24T04:26:13.038Z,61.04
2023-05-24T04:28:44.389Z,61.57
2023-05-24T04:31:18.638Z,61.10
2023-05-24T04:33:44.905Z,61.31
2023-05-24T04:36:11.150Z,61.14
2023-05-24T04:38:37.410Z,61.43
2023-05-24T04:41:06.364Z,61.17
2023-05-24T04:43:38.566Z,61.46
2023-05-24T04:46:06.306Z,61.32
2023-05-24T04:48:42.880Z,61.42
2023-05-24T04:51:09.160Z,61.32
2023-05-24T04:53:35.436Z,61.51
2023-05-24T04:56:01.943Z,61.42
2023-05-24T04:58:33.262Z,61.01
2023-05-24T05:01:02.299Z,61.09
2023-05-24T05:03:28.607Z,61.28
2023-05-24T05:05:54.948Z,61.21
2023-05-24T05:08:24.739Z,61.05
2023-05-24T05:10:54.689Z,61.18
2023-05-24T05:13:20.941Z,61.03
2023-05-24T05:15:50.949Z,60.21
2023-05-24T05:18:18.756Z,60.24
2023-05-24T05:20:45.606Z,59.97
2023-05-24T05:23:12.175Z,59.71
2023-05-24T05:25:41.501Z,59.87
2023-05-24T05:28:09.007Z,60.23
2023-05-24T05:30:37.821Z,60.17
2023-05-24T05:33:04.114Z,60.69
2023-05-24T05:35:30.579Z,60.49
2023-05-24T05:37:59.146Z,60.39
2023-05-24T05:40:28.085Z,60.28
2023-05-24T05:42:56.305Z,60.35
2023-05-24T05:45:22.592Z,60.20
2023-05-24T05:47:49.003Z,60.21
2023-05-24T05:50:20.378Z,60.53
2023-05-24T05:52:46.624Z,60.40
2023-05-24T05:55:17.595Z,60.16
2023-05-24T05:57:43.987Z,60.21
2023-05-24T06:00:10.978Z,60.16
2023-05-24T06:02:37.295Z,60.28
2023-05-24T06:05:04.796Z,60.56
2023-05-24T06:07:31.405Z,60.51
2023-05-24T06:09:58.196Z,60.72
2023-05-24T06:12:24.470Z,60.31
2023-05-24T06:14:56.304Z,60.25
2023-05-24T06:17:23.045Z,60.07
2023-05-24T06:19:50.336Z,60.41
2023-05-24T06:22:17.043Z,60.31
2023-05-24T06:24:43.279Z,60.67
2023-05-24T06:27:09.521Z,60.32
2023-05-24T06:29:35.851Z,60.34
2023-05-24T06:32:07.274Z,60.73
2023-05-24T06:34:37.788Z,60.40
2023-05-24T06:37:04.220Z,60.21
2023-05-24T06:39:30.517Z,60.22
2023-05-24T06:41:56.816Z,60.14
2023-05-24T06:44:25.269Z,59.81
2023-05-24T06:46:51.725Z,59.96
2023-05-24T06:49:22.366Z,60.33
2023-05-24T06:51:53.071Z,59.92
2023-05-24T06:54:19.403Z,60.00
2023-05-24T06:56:47.929Z,59.94
2023-05-24T06:59:14.409Z,60.25
2023-05-24T07:01:45.300Z,60.01
2023-05-24T07:04:11.633Z,59.84
2023-05-24T07:06:45.141Z,60.20
2023-05-24T07:09:15.088Z,60.04
2023-05-24T07:11:41.395Z,59.74
2023-05-24T07:14:07.695Z,59.77
2023-05-24T07:16:37.841Z,59.97
2023-05-24T07:19:07.988Z,60.04
2023-05-24T07:21:42.266Z,58.95
2023-05-24T07:24:08.538Z,59.58
2023-05-24T07:26:34.821Z,59.87
2023-05-24T07:29:01.900Z,59.82
2023-05-24T07:31:32.939Z,59.75
2023-05-24T07:34:04.697Z,59.75
2023-05-24T07:36:39.843Z,59.78
2023-05-24T07:39:11.451Z,60.02
2023-05-24T07:41:41.244Z,59.33
2023-05-24T07:44:10.890Z,59.90
2023-05-24T07:46:37.259Z,60.07
2023-05-24T07:49:03.523Z,59.50
2023-05-24T07:51:31.818Z,58.79
2023-05-24T07:54:02.933Z,57.47
2023-05-24T07:56:29.194Z,59.17
2023-05-24T07:58:57.037Z,58.99
2023-05-24T08:01:24.230Z,59.37
2023-05-24T08:03:50.611Z,59.53
2023-05-24T08:06:17.085Z,59.48
2023-05-24T08:08:43.517Z,59.49
2023-05-24T08:11:14.832Z,59.33
2023-05-24T08:13:46.451Z,59.57
2023-05-24T08:16:12.713Z,59.60
2023-05-24T08:18:39.068Z,59.45
2023-05-24T08:21:05.649Z,59.65
2023-05-24T08:23:35.870Z,59.41
2023-05-24T08:26:02.131Z,59.64
2023-05-24T08:28:28.459Z,58.63
2023-05-24T08:30:55.279Z,58.80
2023-05-24T08:33:21.554Z,59.67
2023-05-24T08:35:47.804Z,59.79
2023-05-24T08:38:14.149Z,60.36
2023-05-24T08:40:42.957Z,59.97
2023-05-24T08:43:09.377Z,59.85
2023-05-24T08:45:36.874Z,59.69
2023-05-24T08:48:04.144Z,59.48
2023-05-24T08:50:38.274Z,59.90
2023-05-24T08:53:05.756Z,59.74
2023-05-24T08:55:33.462Z,59.56
2023-05-24T08:57:59.844Z,59.54
2023-05-24T09:00:26.218Z,59.78
2023-05-24T09:02:57.078Z,59.31
2023-05-24T09:05:23.541Z,59.45
2023-05-24T09:07:49.786Z,59.23
2023-05-24T09:10:17.228Z,59.50
2023-05-24T09:12:47.476Z,59.67
2023-05-24T09:15:13.981Z,59.24
2023-05-24T09:17:40.285Z,59.13
2023-05-24T09:20:10.476Z,59.69
2023-05-24T09:22:39.564Z,59.22
2023-05-24T09:25:12.652Z,59.61
2023-05-24T09:27:39.050Z,58.98
2023-05-24T09:30:09.692Z,58.76
2023-05-24T09:32:36.041Z,58.69
2023-05-24T09:35:02.406Z,59.10
2023-05-24T09:37:32.872Z,59.26
2023-05-24T09:39:59.604Z,59.60
2023-05-24T09:42:31.099Z,59.27
2023-05-24T09:44:58.708Z,59.89
2023-05-24T09:47:25.104Z,60.11
2023-05-24T09:49:52.968Z,59.93
2023-05-24T09:52:20.241Z,59.75
2023-05-24T09:54:52.313Z,59.90
2023-05-24T09:57:22.686Z,59.98
2023-05-24T09:59:49.005Z,59.81
2023-05-24T10:02:19.985Z,59.69
2023-05-24T10:04:49.918Z,60.40
2023-05-24T10:07:24.541Z,59.76
2023-05-24T10:09:50.852Z,60.09
2023-05-24T10:12:18.949Z,60.00
2023-05-24T10:14:47.765Z,60.37
2023-05-24T10:17:15.968Z,60.08
2023-05-24T10:19:42.259Z,60.24
2023-05-24T10:22:08.520Z,60.26
2023-05-24T10:24:34.809Z,60.61
2023-05-24T10:27:01.086Z,60.51
2023-05-24T10:29:30.705Z,60.68
2023-05-24T10:31:56.999Z,60.57
2023-05-24T10:34:23.266Z,60.58
2023-05-24T10:36:49.734Z,60.68
2023-05-24T10:39:21.343Z,60.39
2023-05-24T10:41:47.803Z,60.40
2023-05-24T10:44:14.278Z,60.49
2023-05-24T10:46:41.912Z,60.66
2023-05-24T10:49:11.626Z,60.72
2023-05-24T10:51:37.898Z,60.79
2023-05-24T10:54:04.712Z,60.93
2023-05-24T10:56:32.105Z,60.83
2023-05-24T10:58:58.450Z,61.20
2023-05-24T11:01:30.063Z,61.21
2023-05-24T11:03:57.471Z,61.26
2023-05-24T11:06:28.385Z,60.96
2023-05-24T11:08:59.655Z,61.14
2023-05-24T11:11:27.991Z,61.10
2023-05-24T11:13:56.535Z,60.91
2023-05-24T11:16:22.994Z,60.72
2023-05-24T11:18:49.532Z,61.15
2023-05-24T11:21:15.791Z,61.14
2023-05-24T11:23:42.043Z,61.37
2023-05-24T11:26:10.810Z,61.46
2023-05-24T11:28:42.330Z,61.29
2023-05-24T11:31:08.807Z,61.20
2023-05-24T11:33:35.094Z,61.29
2023-05-24T11:36:04.050Z,61.15
2023-05-24T11:38:33.463Z,61.19
2023-05-24T11:41:04.295Z,61.45
2023-05-24T11:43:30.648Z,61.57
2023-05-24T11:45:56.942Z,61.21
2023-05-24T11:48:23.234Z,66.00
2023-05-24T11:50:54.412Z,61.17
2023-05-24T11:53:20.878Z,61.00
2023-05-24T11:55:50.147Z,61.21
2023-05-24T11:58:16.667Z,61.01
2023-05-24T12:00:43.283Z,61.40
2023-05-24T12:03:10.174Z,60.89
2023-05-24T12:05:36.664Z,60.96
2023-05-24T12:08:05.300Z,60.88
2023-05-24T12:10:37.643Z,61.24
2023-05-24T12:13:05.452Z,60.74
2023-05-24T12:15:35.039Z,60.58
2023-05-24T12:18:01.437Z,62.26
2023-05-24T12:20:30.863Z,60.39
2023-05-24T12:22:57.187Z,60.23
2023-05-24T12:25:24.330Z,60.41
2023-05-24T12:27:52.285Z,60.18
2023-05-24T12:30:20.531Z,60.55
2023-05-24T12:32:53.066Z,60.08
2023-05-24T12:35:24.653Z,60.04
2023-05-24T12:37:51.059Z,58.37
2023-05-24T12:40:17.352Z,56.15
2023-05-24T12:42:43.844Z,59.16
2023-05-24T12:45:16.877Z,58.46
2023-05-24T12:47:43.192Z,58.37
2023-05-24T12:50:16.899Z,57.75
2023-05-24T12:52:43.487Z,57.67
2023-05-24T12:55:10.050Z,57.62
2023-05-24T12:57:36.295Z,57.76
2023-05-24T13:00:04.324Z,57.09
2023-05-24T13:02:30.637Z,57.51
2023-05-24T13:04:56.973Z,57.07
2023-05-24T13:07:30.282Z,57.61
2023-05-24T13:09:56.884Z,57.37
2023-05-24T13:12:23.509Z,57.70
2023-05-24T13:14:52.669Z,58.13
2023-05-24T13:17:22.351Z,57.87
2023-05-24T13:19:48.848Z,58.07
2023-05-24T13:22:17.267Z,57.82
2023-05-24T13:24:45.678Z,58.51
2023-05-24T13:27:11.923Z,58.42
2023-05-24T13:29:48.827Z,56.61
2023-05-24T13:32:24.458Z,53.00
2023-05-24T13:34:50.806Z,52.60
2023-05-24T13:37:19.282Z,50.97
2023-05-24T13:39:45.633Z,53.31
2023-05-24T13:42:16.365Z,55.57
2023-05-24T13:44:49.474Z,55.98
2023-05-24T13:47:38.754Z,55.49
2023-05-24T13:50:06.476Z,55.61
2023-05-24T13:52:32.789Z,56.00
2023-05-24T13:55:06.707Z,56.31
2023-05-24T13:57:49.684Z,56.26
2023-05-24T14:00:25.156Z,56.21
2023-05-24T14:02:51.434Z,56.43
2023-05-24T14:05:27.345Z,56.11
2023-05-24T14:07:59.279Z,56.29
2023-05-24T14:10:25.573Z,56.82
2023-05-24T14:13:03.928Z,56.54
2023-05-24T14:15:44.627Z,56.81
2023-05-24T14:18:13.907Z,56.61
2023-05-24T14:20:41.373Z,56.49
2023-05-24T14:23:12.171Z,56.29
2023-05-24T14:25:43.146Z,56.42
2023-05-24T14:28:09.642Z,56.70
2023-05-24T14:30:40.659Z,56.25
2023-05-24T14:33:10.572Z,57.06
2023-05-24T14:35:36.825Z,56.72
2023-05-24T14:38:04.963Z,56.71
2023-05-24T14:40:33.703Z,56.89
2023-05-24T14:43:00.153Z,56.83
2023-05-24T14:45:26.401Z,57.08
2023-05-24T14:47:56.122Z,57.11
2023-05-24T14:50:23.364Z,57.13
2023-05-24T14:52:55.112Z,57.30
2023-05-24T14:55:21.924Z,57.09
2023-05-24T14:57:48.328Z,57.41
2023-05-24T15:00:19.807Z,57.19
2023-05-24T15:02:47.960Z,57.20
2023-05-24T15:05:16.020Z,57.37
2023-05-24T15:07:42.288Z,57.15
2023-05-24T15:10:10.561Z,57.60
2023-05-24T15:12:36.864Z,57.37
2023-05-24T15:15:03.116Z,57.66
2023-05-24T15:17:33.118Z,57.48
2023-05-24T15:19:59.487Z,57.75
2023-05-24T15:22:35.058Z,57.61
2023-05-24T15:25:04.265Z,57.43
2023-05-24T15:27:30.544Z,57.53
2023-05-24T15:30:03.433Z,57.97
2023-05-24T15:32:34.758Z,58.07
2023-05-24T15:35:03.380Z,57.80
2023-05-24T15:37:29.680Z,57.91
2023-05-24T15:39:55.957Z,58.20
2023-05-24T15:42:25.864Z,58.18
2023-05-24T15:44:52.172Z,58.11
2023-05-24T15:47:21.933Z,58.17
2023-05-24T15:49:48.703Z,58.22
2023-05-24T15:52:15.177Z,57.97
2023-05-24T15:54:41.447Z,58.31
2023-05-24T15:57:07.777Z,57.95
2023-05-24T15:59:34.178Z,58.11
2023-05-24T16:02:06.315Z,58.33
2023-05-24T16:04:35.783Z,58.44
2023-05-24T16:07:02.188Z,58.46
2023-05-24T16:09:28.435Z,58.21
2023-05-24T16:11:54.696Z,58.54
2023-05-24T16:14:21.147Z,58.50
2023-05-24T16:16:47.467Z,58.56
2023-05-24T16:19:13.751Z,58.48
2023-05-24T16:21:41.536Z,58.57
2023-05-24T16:24:10.884Z,58.59
2023-05-24T16:26:41.470Z,58.31
2023-05-24T16:29:07.751Z,58.18
2023-05-24T16:31:34.174Z,58.29
2023-05-24T16:34:00.558Z,58.52
2023-05-24T16:36:26.810Z,58.35
2023-05-24T16:38:55.499Z,58.66
2023-05-24T16:41:21.743Z,58.64
2023-05-24T16:43:52.424Z,58.55
2023-05-24T16:46:25.328Z,58.49
2023-05-24T16:48:54.099Z,58.65
2023-05-24T16:51:23.738Z,58.80
2023-05-24T16:53:50.000Z,58.51
2023-05-24T16:56:16.250Z,58.71
2023-05-24T16:58:42.506Z,58.37
2023-05-24T17:01:08.761Z,58.53
2023-05-24T17:03:37.413Z,58.40
2023-05-24T17:06:04.172Z,58.68
2023-05-24T17:08:34.326Z,58.68
2023-05-24T17:11:00.615Z,58.61
2023-05-24T17:13:29.451Z,58.28
2023-05-24T17:15:55.891Z,58.24
2023-05-24T17:18:23.497Z,58.45
2023-05-24T17:20:49.826Z,58.51
2023-05-24T17:23:16.175Z,58.31
2023-05-24T17:25:42.453Z,58.12
2023-05-24T17:28:10.093Z,58.52
2023-05-24T17:30:36.356Z,58.38
2023-05-24T17:33:02.725Z,58.01
2023-05-24T17:35:29.058Z,57.90
2023-05-24T17:37:55.315Z,58.24
2023-05-24T17:40:24.057Z,58.12
2023-05-24T17:42:50.662Z,58.34
2023-05-24T17:45:24.039Z,58.19
2023-05-24T17:47:50.328Z,58.28
2023-05-24T17:50:20.206Z,57.90
2023-05-24T17:52:47.061Z,58.07
2023-05-24T17:55:18.494Z,57.91
2023-05-24T17:57:44.779Z,58.25
2023-05-24T18:00:11.536Z,57.86
2023-05-24T18:02:39.635Z,57.91
2023-05-24T18:05:06.055Z,57.83
2023-05-24T18:07:32.476Z,58.00
2023-05-24T18:10:04.286Z,58.18
2023-05-24T18:12:30.605Z,57.93
2023-05-24T18:14:57.001Z,58.21
2023-05-24T18:17:23.426Z,58.05
2023-05-24T18:19:55.298Z,58.18
2023-05-24T18:22:23.298Z,57.97
2023-05-24T18:24:49.571Z,57.97
2023-05-24T18:27:15.970Z,58.24
2023-05-24T18:29:46.279Z,58.42
2023-05-24T18:32:12.630Z,58.00
2023-05-24T18:34:38.950Z,58.20
2023-05-24T18:37:05.221Z,57.71
2023-05-24T18:39:31.684Z,57.93
2023-05-24T18:42:02.877Z,57.93
2023-05-24T18:44:30.871Z,57.62
2023-05-24T18:46:57.276Z,57.76
2023-05-24T18:49:23.555Z,57.67
2023-05-24T18:51:49.855Z,57.84
2023-05-24T18:54:16.173Z,57.55
2023-05-24T18:56:42.480Z,57.92
2023-05-24T18:59:13.159Z,57.55
2023-05-24T19:01:39.628Z,57.64
2023-05-24T19:04:09.177Z,57.90
2023-05-24T19:06:37.753Z,57.33
2023-05-24T19:09:04.005Z,57.45
2023-05-24T19:11:30.382Z,57.37
2023-05-24T19:14:05.062Z,57.88
2023-05-24T19:16:31.368Z,57.54
2023-05-24T19:18:58.778Z,57.72
2023-05-24T19:21:30.471Z,57.52
2023-05-24T19:23:56.928Z,57.65
2023-05-24T19:26:29.194Z,57.93
2023-05-24T19:28:55.730Z,57.56
2023-05-24T19:31:28.131Z,57.52
2023-05-24T19:34:02.015Z,57.23
2023-05-24T19:36:31.378Z,57.66
2023-05-24T19:38:57.673Z,57.64
2023-05-24T19:41:27.556Z,57.58
2023-05-24T19:43:56.065Z,57.64
2023-05-24T19:46:22.779Z,57.54
2023-05-24T19:48:49.040Z,57.63
2023-05-24T19:51:18.562Z,57.37
2023-05-24T19:53:48.223Z,57.60
2023-05-24T19:56:14.497Z,57.35
2023-05-24T19:58:44.714Z,57.85
2023-05-24T20:01:11.205Z,57.29
2023-05-24T20:03:37.779Z,57.21
2023-05-24T20:06:04.153Z,57.66
2023-05-24T20:08:30.482Z,57.21
2023-05-24T20:10:58.488Z,57.56
2023-05-24T20:13:24.798Z,57.29
2023-05-24T20:15:55.897Z,57.16
2023-05-24T20:18:22.471Z,57.48
2023-05-24T20:20:48.918Z,57.74
2023-05-24T20:23:16.989Z,57.42
2023-05-24T20:25:45.799Z,57.26
2023-05-24T20:28:25.675Z,57.55
2023-05-24T20:30:55.592Z,57.37
2023-05-24T20:33:22.144Z,57.43
2023-05-24T20:35:48.538Z,57.17
2023-05-24T20:38:18.466Z,57.39
2023-05-24T20:40:45.134Z,57.53
2023-05-24T20:43:17.248Z,57.36
2023-05-24T20:45:45.654Z,57.32
2023-05-24T20:48:12.259Z,57.46
2023-05-24T20:50:39.114Z,57.24
2023-05-24T20:53:09.945Z,57.44
2023-05-24T20:55:36.314Z,57.17
2023-05-24T20:58:02.817Z,57.32
2023-05-24T21:00:29.125Z,57.17
2023-05-24T21:03:01.519Z,57.17
2023-05-24T21:05:33.826Z,57.44
2023-05-24T21:08:00.167Z,57.43
2023-05-24T21:10:28.934Z,57.14
2023-05-24T21:12:55.323Z,57.34
2023-05-24T21:15:22.456Z,57.39
2023-05-24T21:17:50.897Z,57.29
2023-05-24T21:20:23.210Z,57.42
2023-05-24T21:22:49.579Z,57.18
2023-05-24T21:25:18.183Z,57.50
2023-05-24T21:27:50.919Z,57.43
2023-05-24T21:30:19.479Z,56.95
2023-05-24T21:32:45.826Z,57.43
2023-05-24T21:35:15.191Z,57.20
2023-05-24T21:37:44.608Z,57.47
2023-05-24T21:40:12.513Z,57.59
2023-05-24T21:42:38.771Z,57.26
2023-05-24T21:45:13.339Z,57.38
2023-05-24T21:47:39.708Z,57.31
2023-05-24T21:50:13.701Z,57.21
2023-05-24T21:52:42.002Z,57.17
2023-05-24T21:55:08.741Z,57.44
2023-05-24T21:57:43.228Z,57.47
2023-05-24T22:00:14.331Z,57.48
2023-05-24T22:02:41.810Z,57.18
2023-05-24T22:05:09.039Z,57.57
2023-05-24T22:07:41.349Z,57.63
2023-05-24T22:10:07.909Z,57.17
2023-05-24T22:12:36.101Z,57.62
2023-05-24T22:15:02.461Z,57.31
2023-05-24T22:17:28.747Z,57.47
2023-05-24T22:19:55.110Z,57.41
2023-05-24T22:22:27.687Z,57.56
2023-05-24T22:24:54.297Z,57.60
2023-05-24T22:27:22.808Z,57.31
2023-05-24T22:29:52.795Z,57.72
2023-05-24T22:32:23.839Z,57.58
2023-05-24T22:34:50.121Z,57.30
2023-05-24T22:37:16.530Z,57.22
2023-05-24T22:39:42.833Z,57.27
2023-05-24T22:42:09.167Z,57.23
2023-05-24T22:44:42.033Z,57.35
2023-05-24T22:47:09.275Z,57.51
2023-05-24T22:49:36.918Z,57.27
2023-05-24T22:52:10.728Z,57.08
2023-05-24T22:54:36.992Z,57.42
2023-05-24T22:57:11.110Z,57.43
2023-05-24T22:59:37.557Z,57.32
2023-05-24T23:02:03.811Z,57.25
2023-05-24T23:04:34.094Z,57.71
2023-05-24T23:07:06.395Z,57.58
2023-05-24T23:09:35.848Z,57.40
2023-05-24T23:12:04.577Z,57.36
2023-05-24T23:14:30.834Z,57.21
2023-05-24T23:16:57.139Z,57.25
2023-05-24T23:19:25.782Z,57.23
2023-05-24T23:21:52.831Z,57.39
2023-05-24T23:24:22.731Z,57.33
2023-05-24T23:26:49.082Z,57.50
2023-05-24T23:29:15.370Z,57.31
2023-05-24T23:31:44.350Z,57.43
2023-05-24T23:34:10.621Z,57.12
2023-05-24T23:36:40.635Z,57.25
2023-05-24T23:39:10.232Z,57.26
2023-05-24T23:41:42.687Z,57.19
2023-05-24T23:44:11.695Z,57.11
2023-05-24T23:46:43.369Z,57.27
2023-05-24T23:49:10.415Z,57.51
2023-05-24T23:51:36.710Z,57.35
2023-05-24T23:54:02.955Z,57.17
2023-05-24T23:56:29.213Z,57.22
2023-05-24T23:58:55.494Z,57.13
